sensor_id;sensor_type;location;lat;lon;timestamp;temperature;humidity
22235;DHT22;11286;45.596;5.284;2023-02-22T00:00:22;11.20;99.90
22235;DHT22;11286;45.596;5.284;2023-02-22T00:02:55;11.20;99.90
22235;DHT22;11286;45.596;5.284;2023-02-22T00:05:26;11.20;99.90
22235;DHT22;11286;45.596;5.284;2023-02-22T00:07:52;11.20;99.90
22235;DHT22;11286;45.596;5.284;2023-02-22T00:10:17;11.20;99.90
22235;DHT22;11286;45.596;5.284;2023-02-22T00:12:49;11.20;99.90
22235;DHT22;11286;45.596;5.284;2023-02-22T00:15:17;11.20;99.90
22235;DHT22;11286;45.596;5.284;2023-02-22T00:17:43;11.20;99.90
22235;DHT22;11286;45.596;5.284;2023-02-22T00:20:11;11.20;99.90
22235;DHT22;11286;45.596;5.284;2023-02-22T00:22:42;11.20;99.90
22235;DHT22;11286;45.596;5.284;2023-02-22T00:25:11;11.30;99.90
22235;DHT22;11286;45.596;5.284;2023-02-22T00:27:37;11.20;99.90
22235;DHT22;11286;45.596;5.284;2023-02-22T00:30:04;11.20;99.90
22235;DHT22;11286;45.596;5.284;2023-02-22T00:32:30;11.20;99.90
22235;DHT22;11286;45.596;5.284;2023-02-22T00:34:56;11.20;99.90
22235;DHT22;11286;45.596;5.284;2023-02-22T00:37:21;11.20;99.90
22235;DHT22;11286;45.596;5.284;2023-02-22T00:39:48;11.30;99.90
22235;DHT22;11286;45.596;5.284;2023-02-22T00:42:16;11.20;99.90
22235;DHT22;11286;45.596;5.284;2023-02-22T00:44:42;11.20;99.90
22235;DHT22;11286;45.596;5.284;2023-02-22T00:47:08;11.20;99.90
22235;DHT22;11286;45.596;5.284;2023-02-22T00:49:34;11.20;99.90
22235;DHT22;11286;45.596;5.284;2023-02-22T00:51:59;11.10;99.90
22235;DHT22;11286;45.596;5.284;2023-02-22T00:54:25;11.20;99.90
22235;DHT22;11286;45.596;5.284;2023-02-22T00:56:51;11.20;99.90
22235;DHT22;11286;45.596;5.284;2023-02-22T00:59:17;11.10;99.90
22235;DHT22;11286;45.596;5.284;2023-02-22T01:01:43;11.10;99.90
22235;DHT22;11286;45.596;5.284;2023-02-22T01:04:09;10.90;99.90
22235;DHT22;11286;45.596;5.284;2023-02-22T01:06:35;11.00;99.90
22235;DHT22;11286;45.596;5.284;2023-02-22T01:09:02;11.00;99.90
22235;DHT22;11286;45.596;5.284;2023-02-22T01:11:28;11.00;99.90
22235;DHT22;11286;45.596;5.284;2023-02-22T01:13:55;11.10;99.90
22235;DHT22;11286;45.596;5.284;2023-02-22T01:16:22;11.20;99.90
22235;DHT22;11286;45.596;5.284;2023-02-22T01:18:48;11.20;99.90
22235;DHT22;11286;45.596;5.284;2023-02-22T01:21:13;11.30;99.90
22235;DHT22;11286;45.596;5.284;2023-02-22T01:23:39;11.20;99.90
22235;DHT22;11286;45.596;5.284;2023-02-22T01:26:05;11.20;99.90
22235;DHT22;11286;45.596;5.284;2023-02-22T01:28:31;11.20;99.90
22235;DHT22;11286;45.596;5.284;2023-02-22T01:30:57;11.20;99.90
22235;DHT22;11286;45.596;5.284;2023-02-22T01:33:23;11.30;99.90
22235;DHT22;11286;45.596;5.284;2023-02-22T01:35:48;11.20;99.90
22235;DHT22;11286;45.596;5.284;2023-02-22T01:38:15;11.30;99.90
22235;DHT22;11286;45.596;5.284;2023-02-22T01:40:45;11.30;99.90
22235;DHT22;11286;45.596;5.284;2023-02-22T01:43:27;11.30;99.90
22235;DHT22;11286;45.596;5.284;2023-02-22T01:48:40;11.30;99.90
22235;DHT22;11286;45.596;5.284;2023-02-22T01:51:31;11.20;99.90
22235;DHT22;11286;45.596;5.284;2023-02-22T01:54:15;11.20;99.90
22235;DHT22;11286;45.596;5.284;2023-02-22T01:59:33;11.20;99.90
22235;DHT22;11286;45.596;5.284;2023-02-22T02:02:00;11.20;99.90
22235;DHT22;11286;45.596;5.284;2023-02-22T02:04:30;11.10;99.90
22235;DHT22;11286;45.596;5.284;2023-02-22T02:07:00;11.20;99.90
22235;DHT22;11286;45.596;5.284;2023-02-22T02:09:37;11.10;99.90
22235;DHT22;11286;45.596;5.284;2023-02-22T02:12:07;11.00;99.90
22235;DHT22;11286;45.596;5.284;2023-02-22T02:14:34;11.00;99.90
22235;DHT22;11286;45.596;5.284;2023-02-22T02:17:06;11.00;99.90
22235;DHT22;11286;45.596;5.284;2023-02-22T02:39:50;10.80;99.90
22235;DHT22;11286;45.596;5.284;2023-02-22T02:42:21;10.70;99.90
22235;DHT22;11286;45.596;5.284;2023-02-22T02:44:54;10.70;99.90
22235;DHT22;11286;45.596;5.284;2023-02-22T02:47:27;10.70;99.90
22235;DHT22;11286;45.596;5.284;2023-02-22T02:50:01;10.70;99.90
22235;DHT22;11286;45.596;5.284;2023-02-22T02:52:31;10.70;99.90
22235;DHT22;11286;45.596;5.284;2023-02-22T02:54:58;10.70;99.90
22235;DHT22;11286;45.596;5.284;2023-02-22T02:57:24;10.70;99.90
22235;DHT22;11286;45.596;5.284;2023-02-22T02:59:50;10.80;99.90
22235;DHT22;11286;45.596;5.284;2023-02-22T03:16:57;10.60;99.90
22235;DHT22;11286;45.596;5.284;2023-02-22T03:19:28;10.60;99.90
22235;DHT22;11286;45.596;5.284;2023-02-22T03:25:23;10.50;99.90
22235;DHT22;11286;45.596;5.284;2023-02-22T03:27:52;10.30;99.90
22235;DHT22;11286;45.596;5.284;2023-02-22T03:30:25;10.40;99.90
22235;DHT22;11286;45.596;5.284;2023-02-22T03:32:58;10.50;99.90
22235;DHT22;11286;45.596;5.284;2023-02-22T03:35:28;10.50;99.90
22235;DHT22;11286;45.596;5.284;2023-02-22T03:37:59;10.50;99.90
22235;DHT22;11286;45.596;5.284;2023-02-22T03:40:31;10.40;99.90
22235;DHT22;11286;45.596;5.284;2023-02-22T03:43:03;10.40;99.90
22235;DHT22;11286;45.596;5.284;2023-02-22T03:45:30;10.40;99.90
22235;DHT22;11286;45.596;5.284;2023-02-22T03:48:05;10.50;99.90
22235;DHT22;11286;45.596;5.284;2023-02-22T03:50:35;10.40;99.90
22235;DHT22;11286;45.596;5.284;2023-02-22T03:53:02;10.40;99.90
22235;DHT22;11286;45.596;5.284;2023-02-22T03:55:28;10.30;99.90
22235;DHT22;11286;45.596;5.284;2023-02-22T03:57:57;10.40;99.90
22235;DHT22;11286;45.596;5.284;2023-02-22T04:00:26;10.50;99.90
22235;DHT22;11286;45.596;5.284;2023-02-22T04:02:52;10.50;99.90
22235;DHT22;11286;45.596;5.284;2023-02-22T04:05:18;10.60;99.90
22235;DHT22;11286;45.596;5.284;2023-02-22T04:07:44;10.50;99.90
22235;DHT22;11286;45.596;5.284;2023-02-22T04:10:11;10.50;99.90
22235;DHT22;11286;45.596;5.284;2023-02-22T04:12:37;10.50;99.90
22235;DHT22;11286;45.596;5.284;2023-02-22T04:15:05;10.30;99.90
22235;DHT22;11286;45.596;5.284;2023-02-22T04:17:31;10.40;99.90
22235;DHT22;11286;45.596;5.284;2023-02-22T04:19:57;10.40;99.90
22235;DHT22;11286;45.596;5.284;2023-02-22T04:22:23;10.40;99.90
22235;DHT22;11286;45.596;5.284;2023-02-22T04:24:48;10.40;99.90
22235;DHT22;11286;45.596;5.284;2023-02-22T04:27:14;10.30;99.90
22235;DHT22;11286;45.596;5.284;2023-02-22T04:29:40;10.40;99.90
22235;DHT22;11286;45.596;5.284;2023-02-22T04:32:06;10.20;99.90
22235;DHT22;11286;45.596;5.284;2023-02-22T04:34:32;10.20;99.90
22235;DHT22;11286;45.596;5.284;2023-02-22T04:36:58;10.20;99.90
22235;DHT22;11286;45.596;5.284;2023-02-22T04:39:23;10.30;99.90
22235;DHT22;11286;45.596;5.284;2023-02-22T04:41:49;10.00;99.90
22235;DHT22;11286;45.596;5.284;2023-02-22T04:44:15;10.10;99.90
22235;DHT22;11286;45.596;5.284;2023-02-22T04:46:41;10.10;99.90
22235;DHT22;11286;45.596;5.284;2023-02-22T04:49:06;10.10;99.90
22235;DHT22;11286;45.596;5.284;2023-02-22T04:51:32;10.20;99.90
22235;DHT22;11286;45.596;5.284;2023-02-22T04:53:57;9.90;99.90
22235;DHT22;11286;45.596;5.284;2023-02-22T04:56:23;9.80;99.90
22235;DHT22;11286;45.596;5.284;2023-02-22T04:58:49;9.70;99.90
22235;DHT22;11286;45.596;5.284;2023-02-22T05:01:15;9.70;99.90
22235;DHT22;11286;45.596;5.284;2023-02-22T05:03:41;9.60;99.90
22235;DHT22;11286;45.596;5.284;2023-02-22T05:06:07;9.50;99.90
22235;DHT22;11286;45.596;5.284;2023-02-22T05:08:33;9.70;99.90
22235;DHT22;11286;45.596;5.284;2023-02-22T05:10:58;9.70;99.90
22235;DHT22;11286;45.596;5.284;2023-02-22T05:13:24;9.80;99.90
22235;DHT22;11286;45.596;5.284;2023-02-22T05:15:50;9.80;99.90
22235;DHT22;11286;45.596;5.284;2023-02-22T05:18:16;9.70;99.90
22235;DHT22;11286;45.596;5.284;2023-02-22T05:20:41;9.80;99.90
22235;DHT22;11286;45.596;5.284;2023-02-22T05:23:07;10.00;99.90
22235;DHT22;11286;45.596;5.284;2023-02-22T05:25:33;10.00;99.90
22235;DHT22;11286;45.596;5.284;2023-02-22T05:28:04;9.80;99.90
22235;DHT22;11286;45.596;5.284;2023-02-22T05:30:32;9.70;99.90
22235;DHT22;11286;45.596;5.284;2023-02-22T05:32:59;9.60;99.90
22235;DHT22;11286;45.596;5.284;2023-02-22T05:35:25;9.70;99.90
22235;DHT22;11286;45.596;5.284;2023-02-22T05:37:52;9.70;99.90
22235;DHT22;11286;45.596;5.284;2023-02-22T05:40:23;9.60;99.90
22235;DHT22;11286;45.596;5.284;2023-02-22T05:42:50;9.70;99.90
22235;DHT22;11286;45.596;5.284;2023-02-22T05:45:19;9.70;99.90
22235;DHT22;11286;45.596;5.284;2023-02-22T05:47:45;9.70;99.90
22235;DHT22;11286;45.596;5.284;2023-02-22T05:50:11;9.60;99.90
22235;DHT22;11286;45.596;5.284;2023-02-22T05:52:37;9.70;99.90
22235;DHT22;11286;45.596;5.284;2023-02-22T05:55:04;9.70;99.90
22235;DHT22;11286;45.596;5.284;2023-02-22T05:57:30;9.60;99.90
22235;DHT22;11286;45.596;5.284;2023-02-22T05:59:56;9.40;99.90
22235;DHT22;11286;45.596;5.284;2023-02-22T06:02:21;9.60;99.90
22235;DHT22;11286;45.596;5.284;2023-02-22T06:04:47;9.70;99.90
22235;DHT22;11286;45.596;5.284;2023-02-22T06:07:13;9.50;99.90
22235;DHT22;11286;45.596;5.284;2023-02-22T06:09:39;9.20;99.90
22235;DHT22;11286;45.596;5.284;2023-02-22T06:12:06;9.10;99.90
22235;DHT22;11286;45.596;5.284;2023-02-22T06:14:31;9.20;99.90
22235;DHT22;11286;45.596;5.284;2023-02-22T06:16:57;9.10;99.90
22235;DHT22;11286;45.596;5.284;2023-02-22T06:19:25;9.30;99.90
22235;DHT22;11286;45.596;5.284;2023-02-22T06:21:53;9.20;99.90
22235;DHT22;11286;45.596;5.284;2023-02-22T06:24:19;9.30;99.90
22235;DHT22;11286;45.596;5.284;2023-02-22T06:26:57;9.40;99.90
22235;DHT22;11286;45.596;5.284;2023-02-22T06:29:26;9.30;99.90
22235;DHT22;11286;45.596;5.284;2023-02-22T06:31:54;9.30;99.90
22235;DHT22;11286;45.596;5.284;2023-02-22T06:34:20;9.30;99.90
22235;DHT22;11286;45.596;5.284;2023-02-22T06:36:47;9.30;99.90
22235;DHT22;11286;45.596;5.284;2023-02-22T06:39:15;9.50;99.90
22235;DHT22;11286;45.596;5.284;2023-02-22T06:41:42;9.60;99.90
22235;DHT22;11286;45.596;5.284;2023-02-22T06:44:08;9.60;99.90
22235;DHT22;11286;45.596;5.284;2023-02-22T06:46:35;9.60;99.90
22235;DHT22;11286;45.596;5.284;2023-02-22T06:49:01;9.60;99.90
22235;DHT22;11286;45.596;5.284;2023-02-22T06:51:27;9.70;99.90
22235;DHT22;11286;45.596;5.284;2023-02-22T06:53:54;9.90;99.90
22235;DHT22;11286;45.596;5.284;2023-02-22T06:56:20;9.90;99.90
22235;DHT22;11286;45.596;5.284;2023-02-22T06:58:46;10.00;99.90
22235;DHT22;11286;45.596;5.284;2023-02-22T07:01:12;10.10;99.90
22235;DHT22;11286;45.596;5.284;2023-02-22T07:03:37;10.00;99.90
22235;DHT22;11286;45.596;5.284;2023-02-22T07:06:05;10.10;99.90
22235;DHT22;11286;45.596;5.284;2023-02-22T07:08:30;10.20;99.90
22235;DHT22;11286;45.596;5.284;2023-02-22T07:10:56;10.30;99.90
22235;DHT22;11286;45.596;5.284;2023-02-22T07:13:22;10.50;99.90
22235;DHT22;11286;45.596;5.284;2023-02-22T07:15:47;10.60;99.90
22235;DHT22;11286;45.596;5.284;2023-02-22T07:18:13;10.60;99.90
22235;DHT22;11286;45.596;5.284;2023-02-22T07:20:40;10.70;99.90
22235;DHT22;11286;45.596;5.284;2023-02-22T07:23:06;10.80;99.90
22235;DHT22;11286;45.596;5.284;2023-02-22T07:25:32;10.80;99.90
22235;DHT22;11286;45.596;5.284;2023-02-22T07:27:57;11.00;99.90
22235;DHT22;11286;45.596;5.284;2023-02-22T07:30:30;11.10;99.90
22235;DHT22;11286;45.596;5.284;2023-02-22T07:32:57;10.80;99.90
22235;DHT22;11286;45.596;5.284;2023-02-22T07:35:26;10.30;99.90
22235;DHT22;11286;45.596;5.284;2023-02-22T07:37:53;10.40;99.90
22235;DHT22;11286;45.596;5.284;2023-02-22T07:40:19;10.40;99.90
22235;DHT22;11286;45.596;5.284;2023-02-22T07:43:20;10.00;99.90
22235;DHT22;11286;45.596;5.284;2023-02-22T07:45:47;10.10;99.90
22235;DHT22;11286;45.596;5.284;2023-02-22T07:48:15;10.10;99.90
22235;DHT22;11286;45.596;5.284;2023-02-22T07:50:41;10.40;99.90
22235;DHT22;11286;45.596;5.284;2023-02-22T07:53:11;10.60;99.90
22235;DHT22;11286;45.596;5.284;2023-02-22T07:55:37;10.70;99.90
22235;DHT22;11286;45.596;5.284;2023-02-22T07:58:05;10.70;99.90
22235;DHT22;11286;45.596;5.284;2023-02-22T08:00:36;10.90;99.90
22235;DHT22;11286;45.596;5.284;2023-02-22T08:03:08;11.10;99.90
22235;DHT22;11286;45.596;5.284;2023-02-22T08:05:36;11.20;99.90
22235;DHT22;11286;45.596;5.284;2023-02-22T08:08:02;11.20;99.90
22235;DHT22;11286;45.596;5.284;2023-02-22T08:10:28;11.30;99.90
22235;DHT22;11286;45.596;5.284;2023-02-22T08:12:55;11.40;99.90
22235;DHT22;11286;45.596;5.284;2023-02-22T08:15:36;11.50;99.90
22235;DHT22;11286;45.596;5.284;2023-02-22T08:18:04;11.60;99.90
22235;DHT22;11286;45.596;5.284;2023-02-22T08:20:30;11.50;99.90
22235;DHT22;11286;45.596;5.284;2023-02-22T08:22:57;11.60;99.90
22235;DHT22;11286;45.596;5.284;2023-02-22T08:25:25;11.70;99.90
22235;DHT22;11286;45.596;5.284;2023-02-22T08:27:52;11.90;99.90
22235;DHT22;11286;45.596;5.284;2023-02-22T08:30:23;11.90;99.90
22235;DHT22;11286;45.596;5.284;2023-02-22T08:32:49;11.70;99.90
22235;DHT22;11286;45.596;5.284;2023-02-22T08:35:17;11.80;99.90
22235;DHT22;11286;45.596;5.284;2023-02-22T08:37:48;11.90;99.90
22235;DHT22;11286;45.596;5.284;2023-02-22T08:40:16;11.90;99.90
22235;DHT22;11286;45.596;5.284;2023-02-22T08:42:42;11.70;99.90
22235;DHT22;11286;45.596;5.284;2023-02-22T08:45:09;11.60;99.90
22235;DHT22;11286;45.596;5.284;2023-02-22T08:47:35;11.60;99.90
22235;DHT22;11286;45.596;5.284;2023-02-22T08:50:00;11.40;99.90
22235;DHT22;11286;45.596;5.284;2023-02-22T08:52:26;11.60;99.90
22235;DHT22;11286;45.596;5.284;2023-02-22T08:54:52;11.70;99.90
22235;DHT22;11286;45.596;5.284;2023-02-22T08:57:17;11.60;99.90
22235;DHT22;11286;45.596;5.284;2023-02-22T08:59:43;11.60;99.90
22235;DHT22;11286;45.596;5.284;2023-02-22T09:02:20;11.70;99.90
22235;DHT22;11286;45.596;5.284;2023-02-22T09:04:47;11.90;99.90
22235;DHT22;11286;45.596;5.284;2023-02-22T09:07:13;12.20;99.90
22235;DHT22;11286;45.596;5.284;2023-02-22T09:09:41;12.20;99.90
22235;DHT22;11286;45.596;5.284;2023-02-22T09:12:07;12.40;99.90
22235;DHT22;11286;45.596;5.284;2023-02-22T09:14:33;12.50;99.90
22235;DHT22;11286;45.596;5.284;2023-02-22T09:16:59;12.40;99.90
22235;DHT22;11286;45.596;5.284;2023-02-22T09:19:25;12.30;99.90
22235;DHT22;11286;45.596;5.284;2023-02-22T09:21:55;12.40;99.90
22235;DHT22;11286;45.596;5.284;2023-02-22T09:24:21;12.60;99.90
22235;DHT22;11286;45.596;5.284;2023-02-22T09:26:47;12.70;99.90
22235;DHT22;11286;45.596;5.284;2023-02-22T09:29:16;12.60;99.90
22235;DHT22;11286;45.596;5.284;2023-02-22T09:31:41;12.70;99.90
22235;DHT22;11286;45.596;5.284;2023-02-22T09:34:08;12.80;99.90
22235;DHT22;11286;45.596;5.284;2023-02-22T09:36:43;12.60;99.90
22235;DHT22;11286;45.596;5.284;2023-02-22T09:39:11;12.50;99.90
22235;DHT22;11286;45.596;5.284;2023-02-22T09:41:54;12.60;99.90
22235;DHT22;11286;45.596;5.284;2023-02-22T09:44:44;13.00;99.90
22235;DHT22;11286;45.596;5.284;2023-02-22T09:47:15;13.10;99.90
22235;DHT22;11286;45.596;5.284;2023-02-22T09:50:09;13.20;99.90
22235;DHT22;11286;45.596;5.284;2023-02-22T09:58:35;13.30;99.90
22235;DHT22;11286;45.596;5.284;2023-02-22T10:04:04;13.10;99.90
22235;DHT22;11286;45.596;5.284;2023-02-22T10:06:36;13.00;99.90
22235;DHT22;11286;45.596;5.284;2023-02-22T10:09:03;13.30;99.90
22235;DHT22;11286;45.596;5.284;2023-02-22T10:17:49;13.30;99.90
22235;DHT22;11286;45.596;5.284;2023-02-22T10:23:33;13.40;99.90
22235;DHT22;11286;45.596;5.284;2023-02-22T10:29:04;14.00;99.90
22235;DHT22;11286;45.596;5.284;2023-02-22T10:31:37;13.80;99.90
22235;DHT22;11286;45.596;5.284;2023-02-22T10:34:19;13.60;99.90
22235;DHT22;11286;45.596;5.284;2023-02-22T10:36:54;13.50;99.90
22235;DHT22;11286;45.596;5.284;2023-02-22T10:41:56;13.70;99.90
22235;DHT22;11286;45.596;5.284;2023-02-22T10:44:22;13.70;99.90
22235;DHT22;11286;45.596;5.284;2023-02-22T10:46:49;13.70;99.90
22235;DHT22;11286;45.596;5.284;2023-02-22T10:49:20;13.60;99.90
22235;DHT22;11286;45.596;5.284;2023-02-22T10:51:56;13.50;99.90
22235;DHT22;11286;45.596;5.284;2023-02-22T10:54:27;13.30;99.90
22235;DHT22;11286;45.596;5.284;2023-02-22T10:56:55;13.40;99.90
22235;DHT22;11286;45.596;5.284;2023-02-22T10:59:34;13.10;99.90
22235;DHT22;11286;45.596;5.284;2023-02-22T11:02:29;13.20;99.90
22235;DHT22;11286;45.596;5.284;2023-02-22T11:04:55;13.20;99.90
22235;DHT22;11286;45.596;5.284;2023-02-22T11:07:25;13.30;99.90
22235;DHT22;11286;45.596;5.284;2023-02-22T11:10:06;13.10;99.90
22235;DHT22;11286;45.596;5.284;2023-02-22T11:12:39;13.20;99.90
22235;DHT22;11286;45.596;5.284;2023-02-22T11:17:43;12.90;99.90
22235;DHT22;11286;45.596;5.284;2023-02-22T11:20:24;12.90;99.90
22235;DHT22;11286;45.596;5.284;2023-02-22T11:22:57;12.70;99.90
22235;DHT22;11286;45.596;5.284;2023-02-22T11:25:29;12.80;99.90
22235;DHT22;11286;45.596;5.284;2023-02-22T11:28:10;12.80;99.90
22235;DHT22;11286;45.596;5.284;2023-02-22T11:30:40;13.00;99.90
22235;DHT22;11286;45.596;5.284;2023-02-22T11:33:20;13.00;99.90
22235;DHT22;11286;45.596;5.284;2023-02-22T11:35:55;12.80;99.90
22235;DHT22;11286;45.596;5.284;2023-02-22T11:38:27;12.90;99.90
22235;DHT22;11286;45.596;5.284;2023-02-22T11:41:18;12.80;99.90
22235;DHT22;11286;45.596;5.284;2023-02-22T11:43:49;12.70;99.90
22235;DHT22;11286;45.596;5.284;2023-02-22T11:46:23;12.70;99.90
22235;DHT22;11286;45.596;5.284;2023-02-22T11:49:01;12.60;99.90
22235;DHT22;11286;45.596;5.284;2023-02-22T12:20:59;12.80;99.90
22235;DHT22;11286;45.596;5.284;2023-02-22T12:26:28;12.50;99.90
22235;DHT22;11286;45.596;5.284;2023-02-22T12:29:00;12.60;99.90
22235;DHT22;11286;45.596;5.284;2023-02-22T12:31:36;12.70;99.90
22235;DHT22;11286;45.596;5.284;2023-02-22T12:34:25;12.80;99.90
22235;DHT22;11286;45.596;5.284;2023-02-22T12:37:19;12.90;99.90
22235;DHT22;11286;45.596;5.284;2023-02-22T12:40:23;12.70;99.90
22235;DHT22;11286;45.596;5.284;2023-02-22T12:43:03;12.70;99.90
22235;DHT22;11286;45.596;5.284;2023-02-22T12:48:20;13.00;99.90
22235;DHT22;11286;45.596;5.284;2023-02-22T12:50:53;13.00;99.90
22235;DHT22;11286;45.596;5.284;2023-02-22T12:53:25;12.90;99.90
22235;DHT22;11286;45.596;5.284;2023-02-22T13:01:50;13.10;99.90
22235;DHT22;11286;45.596;5.284;2023-02-22T13:04:16;12.90;99.90
22235;DHT22;11286;45.596;5.284;2023-02-22T13:06:52;13.00;99.90
22235;DHT22;11286;45.596;5.284;2023-02-22T13:15:01;13.10;99.90
22235;DHT22;11286;45.596;5.284;2023-02-22T13:25:52;13.00;99.90
22235;DHT22;11286;45.596;5.284;2023-02-22T13:31:21;13.10;99.90
22235;DHT22;11286;45.596;5.284;2023-02-22T13:52:40;13.60;99.90
22235;DHT22;11286;45.596;5.284;2023-02-22T13:55:14;13.60;99.90
22235;DHT22;11286;45.596;5.284;2023-02-22T13:57:43;13.40;99.90
22235;DHT22;11286;45.596;5.284;2023-02-22T14:10:52;13.50;99.90
22235;DHT22;11286;45.596;5.284;2023-02-22T14:13:29;13.40;99.90
22235;DHT22;11286;45.596;5.284;2023-02-22T14:21:09;13.30;99.90
22235;DHT22;11286;45.596;5.284;2023-02-22T14:23:38;13.30;99.90
22235;DHT22;11286;45.596;5.284;2023-02-22T14:26:16;13.30;99.90
22235;DHT22;11286;45.596;5.284;2023-02-22T14:31:32;13.50;99.90
22235;DHT22;11286;45.596;5.284;2023-02-22T14:34:08;13.50;99.90
22235;DHT22;11286;45.596;5.284;2023-02-22T14:42:05;13.90;99.90
22235;DHT22;11286;45.596;5.284;2023-02-22T14:44:39;13.80;99.90
22235;DHT22;11286;45.596;5.284;2023-02-22T14:47:08;13.70;99.90
22235;DHT22;11286;45.596;5.284;2023-02-22T14:49:42;13.70;99.90
22235;DHT22;11286;45.596;5.284;2023-02-22T14:52:22;13.80;99.90
22235;DHT22;11286;45.596;5.284;2023-02-22T14:55:01;14.00;99.90
22235;DHT22;11286;45.596;5.284;2023-02-22T14:58:08;13.90;99.90
22235;DHT22;11286;45.596;5.284;2023-02-22T15:00:42;13.80;99.90
22235;DHT22;11286;45.596;5.284;2023-02-22T15:06:18;14.00;99.90
22235;DHT22;11286;45.596;5.284;2023-02-22T15:08:45;13.80;99.90
22235;DHT22;11286;45.596;5.284;2023-02-22T15:11:22;14.20;99.90
22235;DHT22;11286;45.596;5.284;2023-02-22T15:13:52;14.10;99.90
22235;DHT22;11286;45.596;5.284;2023-02-22T15:16:20;14.20;99.90
22235;DHT22;11286;45.596;5.284;2023-02-22T15:18:52;14.00;99.90
22235;DHT22;11286;45.596;5.284;2023-02-22T15:21:20;14.10;99.90
22235;DHT22;11286;45.596;5.284;2023-02-22T15:23:50;14.30;99.90
22235;DHT22;11286;45.596;5.284;2023-02-22T15:26:23;14.50;99.90
22235;DHT22;11286;45.596;5.284;2023-02-22T15:28:54;14.20;99.90
22235;DHT22;11286;45.596;5.284;2023-02-22T15:31:32;14.10;99.90
22235;DHT22;11286;45.596;5.284;2023-02-22T15:34:14;14.00;99.90
22235;DHT22;11286;45.596;5.284;2023-02-22T15:36:47;13.80;99.90
22235;DHT22;11286;45.596;5.284;2023-02-22T15:39:23;13.90;99.90
22235;DHT22;11286;45.596;5.284;2023-02-22T15:42:01;13.80;99.90
22235;DHT22;11286;45.596;5.284;2023-02-22T15:44:27;13.80;99.90
22235;DHT22;11286;45.596;5.284;2023-02-22T15:46:53;13.80;99.90
22235;DHT22;11286;45.596;5.284;2023-02-22T15:49:22;13.90;99.90
22235;DHT22;11286;45.596;5.284;2023-02-22T15:52:03;13.80;99.90
22235;DHT22;11286;45.596;5.284;2023-02-22T15:54:37;13.80;99.90
22235;DHT22;11286;45.596;5.284;2023-02-22T15:57:04;13.80;99.90
22235;DHT22;11286;45.596;5.284;2023-02-22T15:59:30;13.70;99.90
22235;DHT22;11286;45.596;5.284;2023-02-22T16:01:58;13.70;99.90
22235;DHT22;11286;45.596;5.284;2023-02-22T16:04:26;13.70;99.90
22235;DHT22;11286;45.596;5.284;2023-02-22T16:07:05;13.60;99.90
22235;DHT22;11286;45.596;5.284;2023-02-22T16:09:32;13.60;99.90
22235;DHT22;11286;45.596;5.284;2023-02-22T16:12:23;13.70;99.90
22235;DHT22;11286;45.596;5.284;2023-02-22T16:14:49;13.70;99.90
22235;DHT22;11286;45.596;5.284;2023-02-22T16:17:37;13.60;99.90
22235;DHT22;11286;45.596;5.284;2023-02-22T16:22:42;13.50;99.90
22235;DHT22;11286;45.596;5.284;2023-02-22T16:30:25;13.40;99.90
22235;DHT22;11286;45.596;5.284;2023-02-22T16:32:54;13.40;99.90
22235;DHT22;11286;45.596;5.284;2023-02-22T16:35:20;13.50;99.90
22235;DHT22;11286;45.596;5.284;2023-02-22T16:37:51;13.60;99.90
22235;DHT22;11286;45.596;5.284;2023-02-22T16:43:06;13.60;99.90
22235;DHT22;11286;45.596;5.284;2023-02-22T16:45:32;13.40;99.90
22235;DHT22;11286;45.596;5.284;2023-02-22T16:48:01;13.40;99.90
22235;DHT22;11286;45.596;5.284;2023-02-22T16:50:35;13.40;99.90
22235;DHT22;11286;45.596;5.284;2023-02-22T16:53:01;13.40;99.90
22235;DHT22;11286;45.596;5.284;2023-02-22T16:55:27;13.40;99.90
22235;DHT22;11286;45.596;5.284;2023-02-22T16:57:55;13.30;99.90
22235;DHT22;11286;45.596;5.284;2023-02-22T17:00:22;13.30;99.90
22235;DHT22;11286;45.596;5.284;2023-02-22T17:02:59;13.20;99.90
22235;DHT22;11286;45.596;5.284;2023-02-22T17:05:29;13.20;99.90
22235;DHT22;11286;45.596;5.284;2023-02-22T17:07:55;13.20;99.90
22235;DHT22;11286;45.596;5.284;2023-02-22T17:10:21;13.10;99.90
22235;DHT22;11286;45.596;5.284;2023-02-22T17:12:49;13.20;99.90
22235;DHT22;11286;45.596;5.284;2023-02-22T17:17:46;13.00;99.90
22235;DHT22;11286;45.596;5.284;2023-02-22T17:20:11;12.90;99.90
22235;DHT22;11286;45.596;5.284;2023-02-22T17:22:37;13.00;99.90
22235;DHT22;11286;45.596;5.284;2023-02-22T17:25:18;13.10;99.90
22235;DHT22;11286;45.596;5.284;2023-02-22T17:27:44;13.10;99.90
22235;DHT22;11286;45.596;5.284;2023-02-22T17:30:10;13.00;99.90
22235;DHT22;11286;45.596;5.284;2023-02-22T17:32:38;13.00;99.90
22235;DHT22;11286;45.596;5.284;2023-02-22T17:35:04;13.20;99.90
22235;DHT22;11286;45.596;5.284;2023-02-22T17:37:30;12.90;99.90
22235;DHT22;11286;45.596;5.284;2023-02-22T17:39:55;12.70;99.90
22235;DHT22;11286;45.596;5.284;2023-02-22T17:42:21;12.80;99.90
22235;DHT22;11286;45.596;5.284;2023-02-22T17:44:46;12.80;99.90
22235;DHT22;11286;45.596;5.284;2023-02-22T17:47:12;12.70;99.90
22235;DHT22;11286;45.596;5.284;2023-02-22T17:49:38;12.70;99.90
22235;DHT22;11286;45.596;5.284;2023-02-22T17:52:03;12.70;99.90
22235;DHT22;11286;45.596;5.284;2023-02-22T17:54:31;12.60;99.90
22235;DHT22;11286;45.596;5.284;2023-02-22T17:57:01;12.40;99.90
22235;DHT22;11286;45.596;5.284;2023-02-22T17:59:27;12.40;99.90
22235;DHT22;11286;45.596;5.284;2023-02-22T18:01:52;12.30;99.90
22235;DHT22;11286;45.596;5.284;2023-02-22T18:04:18;12.20;99.90
22235;DHT22;11286;45.596;5.284;2023-02-22T18:06:44;12.00;99.90
22235;DHT22;11286;45.596;5.284;2023-02-22T18:09:11;11.90;99.90
22235;DHT22;11286;45.596;5.284;2023-02-22T18:11:39;11.90;99.90
22235;DHT22;11286;45.596;5.284;2023-02-22T18:14:05;11.90;99.90
22235;DHT22;11286;45.596;5.284;2023-02-22T18:16:32;11.80;99.90
22235;DHT22;11286;45.596;5.284;2023-02-22T18:18:58;11.80;99.90
22235;DHT22;11286;45.596;5.284;2023-02-22T18:21:25;11.70;99.90
22235;DHT22;11286;45.596;5.284;2023-02-22T18:23:51;11.80;99.90
22235;DHT22;11286;45.596;5.284;2023-02-22T18:26:20;11.70;99.90
22235;DHT22;11286;45.596;5.284;2023-02-22T18:28:46;11.70;99.90
22235;DHT22;11286;45.596;5.284;2023-02-22T18:31:15;11.70;99.90
22235;DHT22;11286;45.596;5.284;2023-02-22T18:33:46;11.80;99.90
22235;DHT22;11286;45.596;5.284;2023-02-22T18:36:12;11.80;99.90
22235;DHT22;11286;45.596;5.284;2023-02-22T18:38:40;11.80;99.90
22235;DHT22;11286;45.596;5.284;2023-02-22T18:41:14;11.70;99.90
22235;DHT22;11286;45.596;5.284;2023-02-22T18:43:40;11.80;99.90
22235;DHT22;11286;45.596;5.284;2023-02-22T18:46:15;11.70;99.90
22235;DHT22;11286;45.596;5.284;2023-02-22T18:48:42;11.80;99.90
22235;DHT22;11286;45.596;5.284;2023-02-22T18:51:11;11.70;99.90
22235;DHT22;11286;45.596;5.284;2023-02-22T18:53:38;11.70;99.90